Time;durP1;ratioP1;P1;durP2;ratioP2;P2;SDS_P1;SDS_P2;PMS_P1;PMS_P2;Temp;Humidity;BMP_temperature;BMP_pressure;BME280_temperature;BME280_humidity;BME280_pressure;Samples;Min_cycle;Max_cycle;Signal;HPM_P1;HPM_P2
2022/05/26 00:00:34;;;;;;;8.93;4.25;;;17.30;69.40;;;;;;5133193;27;20413;-65
2022/05/26 00:03:00;;;;;;;8.32;4.70;;;17.30;69.50;;;;;;5115290;28;20114;-65
2022/05/26 00:05:27;;;;;;;9.32;4.50;;;17.20;69.50;;;;;;5119892;27;20360;-65
2022/05/26 00:07:53;;;;;;;8.57;4.43;;;17.20;69.60;;;;;;5116042;27;20036;-65
2022/05/26 00:10:19;;;;;;;8.27;4.30;;;17.20;69.80;;;;;;5130791;27;20030;-66
2022/05/26 00:12:45;;;;;;;8.00;4.63;;;17.20;70.00;;;;;;5114921;28;20031;-65
2022/05/26 00:15:12;;;;;;;8.55;5.40;;;17.20;70.10;;;;;;5118172;27;20028;-65
2022/05/26 00:17:38;;;;;;;9.75;6.07;;;17.20;70.30;;;;;;5131373;27;20039;-66
2022/05/26 00:20:05;;;;;;;8.55;5.78;;;17.20;70.40;;;;;;5134825;27;20370;-65
2022/05/26 00:22:31;;;;;;;10.07;6.72;;;17.20;70.50;;;;;;5117534;27;20443;-65
2022/05/26 00:24:57;;;;;;;10.32;6.82;;;17.20;70.70;;;;;;5100552;28;20031;-65
2022/05/26 00:27:22;;;;;;;10.05;6.57;;;17.10;70.80;;;;;;5108294;27;20030;-65
2022/05/26 00:29:48;;;;;;;10.15;7.25;;;17.10;70.90;;;;;;5123356;27;20519;-65
2022/05/26 00:32:13;;;;;;;10.75;7.10;;;17.10;71.10;;;;;;5130406;27;20030;-65
2022/05/26 00:34:39;;;;;;;11.13;7.45;;;17.10;71.90;;;;;;5127731;27;20141;-66
2022/05/26 00:37:09;;;;;;;10.02;7.30;;;17.10;71.30;;;;;;5120689;27;20034;-66
2022/05/26 00:39:37;;;;;;;11.67;7.83;;;17.10;71.50;;;;;;5132804;27;20096;-65
2022/05/26 00:42:05;;;;;;;10.13;7.18;;;17.10;71.50;;;;;;5124806;27;20465;-65
2022/05/26 00:44:33;;;;;;;13.73;7.55;;;17.10;71.60;;;;;;5126795;27;20345;-65
2022/05/26 00:47:15;;;;;;;12.68;6.97;;;17.10;71.80;;;;;;5114541;28;20396;-65
2022/05/26 00:49:46;;;;;;;11.60;7.35;;;17.10;71.90;;;;;;5105134;28;20061;-65
2022/05/26 00:52:15;;;;;;;13.57;7.43;;;17.00;71.90;;;;;;5118757;27;20390;-65
2022/05/26 00:54:43;;;;;;;10.93;6.95;;;17.00;72.10;;;;;;5119532;27;20050;-65
2022/05/26 00:57:18;;;;;;;9.55;6.43;;;17.00;72.20;;;;;;5116991;27;20023;-65
2022/05/26 01:00:01;;;;;;;10.82;6.78;;;17.00;72.20;;;;;;5121738;27;20090;-65
2022/05/26 01:02:33;;;;;;;10.52;7.38;;;17.00;72.30;;;;;;5129275;27;20034;-66
2022/05/26 01:05:12;;;;;;;10.20;6.55;;;17.00;72.40;;;;;;5128087;27;20031;-65
2022/05/26 01:07:39;;;;;;;10.38;6.43;;;17.00;72.50;;;;;;5114851;27;20043;-65
2022/05/26 01:10:08;;;;;;;12.88;7.53;;;17.00;72.50;;;;;;5122780;27;20355;-65
2022/05/26 01:12:34;;;;;;;9.75;6.72;;;17.00;72.60;;;;;;5119356;27;20061;-65
2022/05/26 01:15:05;;;;;;;9.55;6.40;;;17.00;72.60;;;;;;5118813;27;20059;-66
2022/05/26 01:18:13;;;;;;;12.20;6.68;;;17.00;72.60;;;;;;5127841;27;20069;-65
2022/05/26 01:20:54;;;;;;;8.85;6.38;;;17.00;72.60;;;;;;5122212;27;20325;-65
2022/05/26 01:23:44;;;;;;;10.55;6.63;;;17.00;72.70;;;;;;5117610;28;20061;-65
2022/05/26 01:26:43;;;;;;;12.15;6.63;;;17.00;72.70;;;;;;5120124;27;20024;-65
2022/05/26 01:29:33;;;;;;;11.05;6.70;;;17.00;72.80;;;;;;5135885;28;20029;-66
2022/05/26 01:32:09;;;;;;;11.60;6.45;;;17.00;72.90;;;;;;5122855;28;20053;-65
2022/05/26 01:35:03;;;;;;;11.65;7.05;;;17.00;72.90;;;;;;5133931;28;20447;-65
2022/05/26 01:37:54;;;;;;;10.10;6.43;;;17.00;73.60;;;;;;5131645;28;20035;-65
2022/05/26 01:40:28;;;;;;;10.25;6.35;;;17.00;73.00;;;;;;5122536;28;20039;-65
2022/05/26 01:43:12;;;;;;;12.25;7.35;;;16.90;73.00;;;;;;5120114;28;20110;-65
2022/05/26 01:45:59;;;;;;;10.73;6.47;;;17.00;73.10;;;;;;5117613;28;20046;-65
2022/05/26 01:48:28;;;;;;;13.85;7.53;;;17.00;73.10;;;;;;5115415;28;20036;-66
2022/05/26 01:51:02;;;;;;;11.07;7.28;;;16.90;73.20;;;;;;5125624;27;20445;-65
2022/05/26 01:53:31;;;;;;;10.52;7.03;;;16.90;73.30;;;;;;5135214;27;20031;-65
2022/05/26 01:56:11;;;;;;;10.77;6.75;;;17.00;73.30;;;;;;5123381;28;20047;-65
2022/05/26 01:58:51;;;;;;;14.60;7.82;;;17.00;73.30;;;;;;5117096;28;20053;-64
2022/05/26 02:01:22;;;;;;;10.85;7.72;;;17.00;73.40;;;;;;5115301;28;20034;-64
2022/05/26 02:03:49;;;;;;;10.60;6.57;;;17.00;73.40;;;;;;5114756;28;20031;-65
2022/05/26 02:06:32;;;;;;;11.85;8.10;;;17.00;73.40;;;;;;5123269;28;20033;-65
2022/05/26 02:09:05;;;;;;;11.43;7.00;;;17.00;73.50;;;;;;5135054;27;20027;-64
2022/05/26 02:11:33;;;;;;;12.60;7.30;;;17.00;73.40;;;;;;5130664;27;20114;-67
2022/05/26 02:14:22;;;;;;;13.95;7.47;;;17.00;73.40;;;;;;5114004;28;20028;-64
2022/05/26 02:16:52;;;;;;;12.35;6.80;;;17.00;73.40;;;;;;5118171;28;20460;-64
2022/05/26 02:19:39;;;;;;;14.85;8.10;;;17.00;73.40;;;;;;5125063;27;20039;-64
2022/05/26 02:22:15;;;;;;;14.75;8.23;;;17.00;73.40;;;;;;5114555;28;20359;-64
2022/05/26 02:25:16;;;;;;;12.30;6.93;;;17.00;73.50;;;;;;5114328;28;20129;-64
2022/05/26 02:27:42;;;;;;;11.07;6.65;;;17.00;73.40;;;;;;5112370;28;20031;-64
2022/05/26 02:30:09;;;;;;;13.15;7.47;;;17.00;73.40;;;;;;5134867;27;20039;-64
2022/05/26 02:32:39;;;;;;;14.45;7.20;;;17.00;73.50;;;;;;5119374;27;20070;-64
2022/05/26 02:35:11;;;;;;;14.73;7.27;;;17.00;73.60;;;;;;5134899;27;20078;-64
2022/05/26 02:37:37;;;;;;;12.77;7.18;;;17.00;73.60;;;;;;5126716;27;20042;-65
2022/05/26 02:40:07;;;;;;;13.60;6.85;;;17.00;73.50;;;;;;5136548;27;20042;-64
2022/05/26 02:42:35;;;;;;;13.85;7.30;;;17.00;73.50;;;;;;5133123;27;20443;-64
2022/05/26 02:45:01;;;;;;;13.85;7.80;;;17.00;73.60;;;;;;5129316;27;20106;-65
2022/05/26 02:47:44;;;;;;;15.45;8.13;;;17.00;73.60;;;;;;5132514;27;20110;-64
2022/05/26 02:50:30;;;;;;;13.23;7.05;;;17.00;73.70;;;;;;5120956;27;20040;-64
2022/05/26 02:53:20;;;;;;;14.73;7.47;;;17.00;73.70;;;;;;5123615;27;20027;-65
2022/05/26 02:56:20;;;;;;;12.57;6.70;;;17.00;73.70;;;;;;5138099;27;20027;-65
2022/05/26 02:59:11;;;;;;;12.48;7.03;;;17.00;73.80;;;;;;5117736;28;20031;-65
2022/05/26 03:01:47;;;;;;;13.32;7.40;;;17.00;73.80;;;;;;5125790;27;20440;-65
2022/05/26 03:04:34;;;;;;;16.25;7.72;;;17.00;73.80;;;;;;5136248;27;20084;-66
2022/05/26 03:07:09;;;;;;;14.15;7.90;;;17.00;73.90;;;;;;5127973;27;20431;-65
2022/05/26 03:09:37;;;;;;;11.82;7.15;;;16.90;73.90;;;;;;5120384;27;20034;-65
2022/05/26 03:12:03;;;;;;;19.17;8.20;;;16.90;73.90;;;;;;5121422;27;20495;-65
2022/05/26 03:14:29;;;;;;;14.80;8.50;;;16.90;74.00;;;;;;5135862;27;20031;-65
2022/05/26 03:16:55;;;;;;;16.30;8.35;;;16.90;74.00;;;;;;5129754;27;20034;-65
2022/05/26 03:19:21;;;;;;;15.07;7.68;;;16.90;74.10;;;;;;5115757;27;20039;-65
2022/05/26 03:21:47;;;;;;;14.15;8.05;;;16.90;74.10;;;;;;5123030;27;20047;-65
2022/05/26 03:24:13;;;;;;;14.13;7.22;;;16.90;74.10;;;;;;5119248;27;20047;-65
2022/05/26 03:26:39;;;;;;;12.38;7.47;;;16.90;74.20;;;;;;5116802;27;20055;-66
2022/05/26 03:29:06;;;;;;;15.27;7.40;;;16.90;74.20;;;;;;5099791;28;20095;-65
2022/05/26 03:31:33;;;;;;;15.13;7.25;;;16.90;74.20;;;;;;5119140;27;20421;-66
2022/05/26 03:42:14;;;;;;;13.48;7.10;;;16.90;74.30;;;;;;5128248;27;20019;-65
2022/05/26 03:44:40;;;;;;;14.77;6.85;;;16.90;74.40;;;;;;5128156;27;20034;-66
2022/05/26 03:47:06;;;;;;;16.67;7.00;;;16.90;74.50;;;;;;5118144;27;20015;-65
2022/05/26 03:49:32;;;;;;;16.13;7.00;;;16.90;74.50;;;;;;5136666;27;20079;-65
2022/05/26 03:51:58;;;;;;;15.70;7.10;;;16.90;74.50;;;;;;5123935;27;20427;-66
2022/05/26 03:54:27;;;;;;;17.42;7.57;;;16.90;74.60;;;;;;5132601;27;20055;-66
2022/05/26 03:56:53;;;;;;;14.40;6.25;;;16.90;74.70;;;;;;5122910;27;20470;-66
2022/05/26 03:59:19;;;;;;;15.35;6.32;;;16.90;74.60;;;;;;5121750;27;20063;-66
2022/05/26 04:01:46;;;;;;;15.93;6.22;;;16.80;74.60;;;;;;5119502;27;20016;-65
2022/05/26 04:04:12;;;;;;;14.45;6.55;;;16.90;74.60;;;;;;5118299;27;20107;-66
2022/05/26 04:06:37;;;;;;;16.40;6.72;;;16.80;74.60;;;;;;5127768;27;20123;-65
2022/05/26 04:09:03;;;;;;;13.75;6.25;;;16.90;74.70;;;;;;5120968;27;20019;-65
2022/05/26 04:11:30;;;;;;;14.20;5.05;;;16.80;74.70;;;;;;5119993;27;20035;-66
2022/05/26 04:13:56;;;;;;;13.23;5.80;;;16.80;74.80;;;;;;5115889;27;20035;-65
2022/05/26 04:16:22;;;;;;;15.65;6.22;;;16.80;74.70;;;;;;5118091;27;20111;-66
2022/05/26 04:18:48;;;;;;;14.57;5.43;;;16.80;74.70;;;;;;5119223;27;20451;-66
2022/05/26 04:21:14;;;;;;;15.15;6.28;;;16.80;74.80;;;;;;5123752;27;20046;-66
2022/05/26 04:23:40;;;;;;;14.07;5.88;;;16.90;74.80;;;;;;5123657;27;20038;-65
2022/05/26 04:26:07;;;;;;;14.77;5.95;;;16.90;74.80;;;;;;5122044;27;20027;-66
2022/05/26 04:28:34;;;;;;;13.07;5.68;;;16.90;74.90;;;;;;5120770;27;20039;-68
2022/05/26 04:31:00;;;;;;;18.80;5.80;;;16.80;74.90;;;;;;5114789;27;20087;-66
2022/05/26 04:33:26;;;;;;;18.52;5.93;;;16.90;74.90;;;;;;5122452;27;20035;-65
2022/05/26 04:35:52;;;;;;;19.05;5.93;;;16.90;74.90;;;;;;5118460;27;20024;-65
2022/05/26 04:38:19;;;;;;;17.60;5.80;;;16.90;74.90;;;;;;5112740;28;20544;-65
2022/05/26 04:40:45;;;;;;;16.88;6.93;;;16.90;75.00;;;;;;5113930;28;20069;-65
2022/05/26 04:43:11;;;;;;;17.48;6.60;;;16.90;75.00;;;;;;5113821;28;20420;-65
2022/05/26 04:45:37;;;;;;;14.52;5.38;;;16.90;75.00;;;;;;5117896;27;20574;-64
2022/05/26 04:48:03;;;;;;;13.35;5.13;;;17.00;75.00;;;;;;5120347;27;20110;-64
2022/05/26 04:50:29;;;;;;;12.48;4.72;;;17.00;75.00;;;;;;5119000;27;20110;-64
2022/05/26 04:52:54;;;;;;;16.10;6.13;;;17.00;75.00;;;;;;5125621;27;20106;-64
2022/05/26 04:55:20;;;;;;;11.95;5.25;;;17.00;75.00;;;;;;5117350;27;20034;-64
2022/05/26 04:57:47;;;;;;;14.77;4.78;;;17.00;75.00;;;;;;5113632;28;20471;-64
2022/05/26 05:00:16;;;;;;;18.42;5.72;;;17.00;75.00;;;;;;5122696;27;20016;-64
2022/05/26 05:02:42;;;;;;;17.73;5.82;;;17.00;75.00;;;;;;5112999;27;20028;-64
2022/05/26 05:05:09;;;;;;;13.32;5.30;;;17.00;75.00;;;;;;5122245;27;20429;-64
2022/05/26 05:07:35;;;;;;;16.60;5.22;;;17.10;75.00;;;;;;5113392;27;20110;-64
2022/05/26 05:10:00;;;;;;;15.23;5.15;;;17.10;75.00;;;;;;5117152;27;20102;-64
2022/05/26 05:12:26;;;;;;;14.32;5.38;;;17.10;74.90;;;;;;5113834;27;20039;-64
2022/05/26 05:14:55;;;;;;;18.67;5.30;;;17.10;74.90;;;;;;5113923;28;20089;-64
2022/05/26 05:17:22;;;;;;;15.43;4.78;;;17.20;74.90;;;;;;5120900;27;20015;-63
2022/05/26 05:19:49;;;;;;;13.60;5.13;;;17.10;74.80;;;;;;5114559;28;20024;-64
2022/05/26 05:22:23;;;;;;;14.15;5.40;;;17.10;74.80;;;;;;5116777;27;20028;-65
2022/05/26 05:25:04;;;;;;;11.80;4.22;;;17.20;75.00;;;;;;5114353;28;20020;-64
2022/05/26 05:27:39;;;;;;;14.00;4.72;;;17.20;75.00;;;;;;5114193;28;20019;-64
2022/05/26 05:30:12;;;;;;;13.95;6.07;;;17.20;75.00;;;;;;5113999;28;20110;-64
2022/05/26 05:33:06;;;;;;;14.63;5.35;;;17.20;74.90;;;;;;5122360;28;20317;-64
2022/05/26 05:35:38;;;;;;;12.38;5.20;;;17.30;74.90;;;;;;5115311;28;20044;-64
2022/05/26 05:38:04;;;;;;;17.55;5.63;;;17.30;74.80;;;;;;5117991;28;20035;-64
2022/05/26 05:40:30;;;;;;;16.83;4.82;;;17.30;74.70;;;;;;5112851;28;20032;-64
2022/05/26 05:42:56;;;;;;;15.48;4.57;;;17.30;74.60;;;;;;5129580;28;20031;-64
2022/05/26 05:45:21;;;;;;;12.85;5.00;;;17.40;74.60;;;;;;5118196;28;20038;-64
2022/05/26 05:47:47;;;;;;;20.02;5.90;;;17.40;75.30;;;;;;5113280;28;20054;-64
2022/05/26 05:50:13;;;;;;;17.30;4.80;;;17.50;74.60;;;;;;5114247;28;20420;-64
2022/05/26 05:52:39;;;;;;;12.20;5.15;;;17.50;74.50;;;;;;5114534;28;20455;-64
2022/05/26 05:55:05;;;;;;;13.02;5.03;;;17.40;74.50;;;;;;5115550;28;20102;-64
2022/05/26 05:57:31;;;;;;;15.75;4.90;;;17.40;74.60;;;;;;5113087;28;20043;-64
2022/05/26 05:59:56;;;;;;;15.30;5.20;;;17.50;74.60;;;;;;5117416;28;20401;-64
2022/05/26 06:02:22;;;;;;;13.98;4.70;;;17.50;74.60;;;;;;5112444;28;20420;-64
2022/05/26 06:04:48;;;;;;;19.10;5.20;;;17.50;74.60;;;;;;5097548;28;20070;-64
2022/05/26 06:07:16;;;;;;;12.30;4.07;;;17.50;74.50;;;;;;5144202;27;20110;-64
2022/05/26 06:09:42;;;;;;;14.45;4.80;;;17.50;75.10;;;;;;5128077;27;20470;-64
2022/05/26 06:12:09;;;;;;;13.35;4.70;;;17.60;74.40;;;;;;5129665;27;20041;-64
2022/05/26 06:14:34;;;;;;;12.00;4.50;;;17.70;74.20;;;;;;5137295;27;20035;-64
2022/05/26 06:17:00;;;;;;;16.25;4.78;;;17.80;73.90;;;;;;5136758;27;20031;-64
2022/05/26 06:19:26;;;;;;;14.50;4.60;;;17.80;73.70;;;;;;5107188;27;20476;-64
2022/05/26 06:21:52;;;;;;;14.77;4.68;;;17.80;73.50;;;;;;5136229;27;20102;-64
2022/05/26 06:24:23;;;;;;;13.07;5.03;;;17.80;73.50;;;;;;5124482;27;20134;-64
2022/05/26 06:26:49;;;;;;;15.93;4.85;;;17.90;73.50;;;;;;5120722;27;20039;-64
2022/05/26 06:37:28;;;;;;;11.15;3.95;;;18.30;72.40;;;;;;5125277;27;20035;-64
2022/05/26 06:39:55;;;;;;;19.20;4.75;;;18.30;72.20;;;;;;5132264;27;20043;-64
2022/05/26 06:42:25;;;;;;;11.50;4.22;;;18.30;72.20;;;;;;5128880;27;20344;-64
2022/05/26 06:45:00;;;;;;;12.55;3.75;;;18.30;72.20;;;;;;5141564;27;20047;-64
2022/05/26 06:47:26;;;;;;;12.93;3.80;;;18.20;72.10;;;;;;5124593;27;20035;-64
2022/05/26 06:49:52;;;;;;;14.65;4.70;;;18.20;72.10;;;;;;5126303;27;20027;-64
2022/05/26 06:52:22;;;;;;;11.75;3.70;;;18.20;72.10;;;;;;5125029;27;20043;-64
2022/05/26 06:54:48;;;;;;;12.32;4.30;;;18.20;72.00;;;;;;5110191;27;20035;-64
2022/05/26 06:57:15;;;;;;;12.23;4.03;;;18.40;71.60;;;;;;5127332;27;20023;-64
2022/05/26 06:59:40;;;;;;;15.05;4.45;;;18.40;71.90;;;;;;5125734;27;20023;-65
2022/05/26 07:02:09;;;;;;;11.75;3.75;;;18.70;70.70;;;;;;5122451;27;20031;-65
2022/05/26 07:04:36;;;;;;;13.80;4.10;;;19.10;69.80;;;;;;5124620;27;20034;-64
2022/05/26 07:07:01;;;;;;;14.70;3.90;;;19.20;69.20;;;;;;5127053;27;20038;-65
2022/05/26 07:09:28;;;;;;;8.85;3.17;;;19.20;68.80;;;;;;5123558;27;20032;-64
2022/05/26 07:11:53;;;;;;;9.27;2.90;;;19.20;68.60;;;;;;5124203;27;20165;-64
2022/05/26 07:14:19;;;;;;;10.50;2.85;;;19.50;68.00;;;;;;5125973;27;20027;-64
2022/05/26 07:16:45;;;;;;;11.48;3.00;;;19.80;67.20;;;;;;5127241;27;20027;-65
2022/05/26 07:19:15;;;;;;;8.35;2.97;;;20.20;66.30;;;;;;5126221;27;20626;-65
2022/05/26 07:21:46;;;;;;;11.52;3.30;;;20.40;65.50;;;;;;5123108;27;20453;-65
2022/05/26 07:24:13;;;;;;;11.85;3.13;;;20.70;64.60;;;;;;5125693;27;20356;-65
2022/05/26 07:26:39;;;;;;;8.52;2.33;;;20.80;63.90;;;;;;5124416;27;20483;-65
2022/05/26 07:29:05;;;;;;;9.73;2.20;;;20.80;63.50;;;;;;5142469;27;20357;-65
2022/05/26 07:31:31;;;;;;;7.32;2.70;;;21.00;63.30;;;;;;5118789;27;20032;-65
2022/05/26 07:33:57;;;;;;;8.88;2.30;;;21.30;62.70;;;;;;5127228;27;20023;-65
2022/05/26 07:41:59;;;;;;;8.88;2.20;;;21.60;60.80;;;;;;5129475;27;20035;-65
2022/05/26 07:44:28;;;;;;;7.22;2.25;;;21.70;60.50;;;;;;5122852;27;20047;-65
2022/05/26 07:46:53;;;;;;;7.45;2.30;;;22.00;59.90;;;;;;5109527;27;20020;-65
2022/05/26 07:49:19;;;;;;;8.70;2.35;;;22.20;59.40;;;;;;5117808;27;20035;-66
2022/05/26 07:51:44;;;;;;;10.80;2.42;;;22.40;58.80;;;;;;5097938;27;20032;-66
2022/05/26 07:54:10;;;;;;;8.85;2.30;;;22.60;58.60;;;;;;5120089;27;20065;-66
2022/05/26 07:56:38;;;;;;;7.78;2.30;;;22.70;58.00;;;;;;5113835;27;20100;-66
2022/05/26 07:59:07;;;;;;;6.57;2.20;;;22.60;57.50;;;;;;5119665;27;20455;-66
2022/05/26 08:01:33;;;;;;;7.15;1.85;;;22.60;57.40;;;;;;5114969;28;20020;-65
2022/05/26 08:03:59;;;;;;;9.82;2.40;;;22.80;57.30;;;;;;5113964;28;20032;-65
2022/05/26 08:06:25;;;;;;;9.80;2.58;;;23.00;56.60;;;;;;5115340;27;20046;-66
2022/05/26 08:08:51;;;;;;;5.85;1.70;;;23.10;56.10;;;;;;5120799;27;20509;-66
2022/05/26 08:11:16;;;;;;;6.00;2.17;;;23.20;55.60;;;;;;5115649;27;20023;-66
2022/05/26 08:13:42;;;;;;;6.88;1.90;;;23.40;55.10;;;;;;5116083;27;20031;-66
2022/05/26 08:16:08;;;;;;;5.13;1.70;;;23.60;54.60;;;;;;5118613;27;20147;-66
2022/05/26 08:18:34;;;;;;;8.02;1.98;;;23.70;54.00;;;;;;5115283;27;20020;-66
2022/05/26 08:21:10;;;;;;;5.72;2.05;;;23.50;53.70;;;;;;5114321;28;20448;-66
2022/05/26 08:23:37;;;;;;;7.80;2.20;;;23.10;53.60;;;;;;5120292;27;20031;-66
2022/05/26 08:26:03;;;;;;;6.25;1.95;;;22.60;54.30;;;;;;5118659;27;20057;-66
2022/05/26 08:28:29;;;;;;;9.70;2.05;;;22.30;55.00;;;;;;5116974;27;20027;-65
2022/05/26 08:30:55;;;;;;;8.35;1.88;;;22.10;55.60;;;;;;5120418;27;20372;-65
2022/05/26 08:33:21;;;;;;;5.22;1.65;;;22.10;55.60;;;;;;5115721;28;20395;-66
2022/05/26 08:35:47;;;;;;;6.68;1.95;;;22.40;55.20;;;;;;5114256;28;20077;-66
2022/05/26 08:38:12;;;;;;;7.10;1.90;;;22.70;54.60;;;;;;5115448;28;20043;-66
2022/05/26 08:40:49;;;;;;;4.60;1.48;;;22.80;54.00;;;;;;5114826;28;20032;-66
2022/05/26 08:43:32;;;;;;;4.75;1.63;;;22.60;53.80;;;;;;5128755;27;20038;-66
2022/05/26 08:45:58;;;;;;;6.43;1.60;;;22.50;53.70;;;;;;5135227;27;20027;-66
2022/05/26 08:48:48;;;;;;;5.43;1.58;;;22.30;53.80;;;;;;5115800;27;20031;-66
2022/05/26 08:51:24;;;;;;;6.10;1.52;;;22.30;53.90;;;;;;5114968;28;20031;-66
2022/05/26 08:53:51;;;;;;;5.40;1.85;;;22.40;54.20;;;;;;5115863;28;20353;-66
2022/05/26 08:56:21;;;;;;;5.32;1.58;;;22.30;53.90;;;;;;5114118;28;20120;-66
2022/05/26 08:58:47;;;;;;;7.00;1.90;;;22.00;54.10;;;;;;5115596;27;20019;-66
2022/05/26 09:01:20;;;;;;;8.20;2.38;;;21.80;55.00;;;;;;5127777;27;20071;-66
2022/05/26 09:03:45;;;;;;;8.73;2.33;;;21.60;54.80;;;;;;5127783;27;20383;-66
2022/05/26 09:06:19;;;;;;;5.82;2.20;;;21.30;55.30;;;;;;5120740;27;20034;-66
2022/05/26 09:14:30;;;;;;;7.68;1.88;;;21.20;56.50;;;;;;5124047;27;20060;-65
2022/05/26 09:17:05;;;;;;;5.47;2.10;;;21.70;55.80;;;;;;5121762;27;20035;-66
2022/05/26 09:19:53;;;;;;;6.43;1.73;;;21.80;55.20;;;;;;5092967;28;20032;-64
2022/05/26 09:22:46;;;;;;;9.65;1.83;;;21.60;55.20;;;;;;5123257;27;20039;-65
2022/05/26 09:25:29;;;;;;;5.78;1.50;;;21.40;55.50;;;;;;5124061;27;20065;-65
2022/05/26 09:27:55;;;;;;;5.28;2.08;;;21.40;55.40;;;;;;5125117;27;20046;-66
2022/05/26 09:30:28;;;;;;;6.32;1.77;;;21.60;55.10;;;;;;5127052;27;20440;-66
2022/05/26 09:32:54;;;;;;;6.82;1.90;;;21.60;54.80;;;;;;5122411;28;20031;-66
2022/05/26 09:35:20;;;;;;;7.47;2.00;;;21.90;54.80;;;;;;5123406;28;20027;-65
2022/05/26 09:37:58;;;;;;;4.28;1.58;;;22.40;54.50;;;;;;5122479;27;20023;-65
2022/05/26 09:40:38;;;;;;;6.03;1.80;;;22.50;53.80;;;;;;5124676;28;20385;-66
2022/05/26 09:43:08;;;;;;;6.10;2.15;;;22.20;54.00;;;;;;5121888;28;20448;-65
2022/05/26 09:45:41;;;;;;;6.90;1.92;;;22.10;54.40;;;;;;5122612;27;20065;-64
2022/05/26 09:48:19;;;;;;;4.25;1.75;;;22.20;54.40;;;;;;5123608;27;20066;-64
2022/05/26 09:50:52;;;;;;;6.57;1.85;;;22.20;54.50;;;;;;5128814;27;20050;-64
2022/05/26 09:53:35;;;;;;;8.57;1.73;;;22.40;54.30;;;;;;5127231;27;20023;-64
2022/05/26 09:56:01;;;;;;;7.00;1.65;;;22.40;54.10;;;;;;5125363;27;20031;-67
2022/05/26 09:58:39;;;;;;;5.40;1.95;;;22.20;54.20;;;;;;5124907;27;20026;-65
2022/05/26 10:01:26;;;;;;;6.68;1.30;;;21.90;54.20;;;;;;5100821;27;20023;-64
2022/05/26 10:04:06;;;;;;;4.35;1.60;;;21.80;54.20;;;;;;5122905;27;20058;-64
2022/05/26 10:06:45;;;;;;;6.25;1.58;;;21.70;54.10;;;;;;5124477;27;20040;-64
2022/05/26 10:09:28;;;;;;;6.45;1.85;;;21.60;54.10;;;;;;5122588;27;20084;-65
2022/05/26 10:12:13;;;;;;;4.50;1.20;;;21.70;54.00;;;;;;5126047;27;20088;-65
2022/05/26 10:15:13;;;;;;;3.95;1.50;;;22.00;53.60;;;;;;5125509;27;20031;-65
2022/05/26 10:18:01;;;;;;;3.05;1.20;;;22.00;53.30;;;;;;5126297;27;20114;-65
2022/05/26 10:20:40;;;;;;;2.83;1.38;;;22.10;53.10;;;;;;5129756;27;20030;-66
2022/05/26 10:23:09;;;;;;;5.68;1.50;;;22.40;52.70;;;;;;5124213;27;20415;-66
2022/05/26 10:25:46;;;;;;;5.03;1.67;;;22.60;52.00;;;;;;5122433;27;20065;-64
2022/05/26 10:28:33;;;;;;;4.70;1.40;;;22.60;51.90;;;;;;5124408;27;20040;-66
2022/05/26 10:31:20;;;;;;;4.82;1.33;;;22.70;52.10;;;;;;5119677;27;20513;-65
2022/05/26 10:34:10;;;;;;;3.53;1.30;;;22.80;51.20;;;;;;5122215;27;20334;-67
2022/05/26 10:37:13;;;;;;;4.30;1.65;;;22.90;51.40;;;;;;5115996;27;20071;-66
2022/05/26 10:39:55;;;;;;;4.47;1.55;;;22.70;52.10;;;;;;5115751;27;20064;-66
2022/05/26 10:42:54;;;;;;;4.65;1.40;;;22.30;52.60;;;;;;5120673;27;20102;-66
2022/05/26 10:45:36;;;;;;;4.07;1.65;;;22.30;52.90;;;;;;5120044;27;20432;-66
2022/05/26 10:48:20;;;;;;;5.10;1.30;;;22.50;52.60;;;;;;5126573;27;20041;-66
2022/05/26 10:51:05;;;;;;;6.20;1.58;;;22.70;52.30;;;;;;5117256;27;20031;-66
2022/05/26 10:53:50;;;;;;;5.15;1.52;;;22.90;51.60;;;;;;5122973;27;20023;-65
2022/05/26 10:57:05;;;;;;;6.22;1.65;;;23.10;51.30;;;;;;5125341;27;20040;-65
2022/05/26 10:59:45;;;;;;;5.32;1.70;;;23.20;50.80;;;;;;5114477;27;20472;-65
2022/05/26 11:02:24;;;;;;;6.43;1.42;;;23.30;50.80;;;;;;5110181;27;20023;-66
2022/05/26 11:04:54;;;;;;;3.60;1.50;;;23.50;50.90;;;;;;5127689;27;20359;-65
2022/05/26 11:07:37;;;;;;;7.82;1.58;;;23.70;50.80;;;;;;5127519;27;20351;-66
2022/05/26 11:10:06;;;;;;;6.53;1.77;;;23.60;50.30;;;;;;5125603;27;20143;-66
2022/05/26 11:12:51;;;;;;;7.90;2.00;;;23.40;50.30;;;;;;5124545;27;20024;-65
2022/05/26 11:18:16;;;;;;;4.90;1.40;;;23.10;49.70;;;;;;5123824;27;20111;-66
2022/05/26 11:20:57;;;;;;;7.72;1.60;;;23.10;50.00;;;;;;5121414;27;20031;-66
2022/05/26 11:23:26;;;;;;;4.97;1.77;;;23.20;49.80;;;;;;5115059;27;20024;-66
2022/05/26 11:26:15;;;;;;;5.47;1.45;;;23.20;50.00;;;;;;5119015;27;20031;-65
2022/05/26 11:28:47;;;;;;;8.60;2.13;;;23.20;50.10;;;;;;5126337;27;20036;-66
2022/05/26 11:37:28;;;;;;;5.85;1.65;;;22.90;50.10;;;;;;5132819;27;20027;-64
2022/05/26 11:39:59;;;;;;;4.15;1.20;;;22.80;49.80;;;;;;5128582;27;20043;-65
2022/05/26 11:42:26;;;;;;;6.78;1.50;;;22.80;50.10;;;;;;5120570;27;20084;-65
2022/05/26 11:44:56;;;;;;;4.50;1.27;;;22.80;50.10;;;;;;5128097;27;20037;-65
2022/05/26 11:47:33;;;;;;;5.17;1.43;;;22.80;49.80;;;;;;5117226;27;20028;-65
2022/05/26 11:50:00;;;;;;;6.28;1.38;;;22.80;49.70;;;;;;5123965;27;20031;-65
2022/05/26 11:52:46;;;;;;;4.75;1.40;;;22.90;49.80;;;;;;5126815;27;20072;-65
2022/05/26 11:55:33;;;;;;;4.13;1.05;;;23.10;49.10;;;;;;5117564;27;20035;-65
2022/05/26 11:58:17;;;;;;;6.65;1.25;;;23.10;49.00;;;;;;5128112;27;20031;-66
2022/05/26 12:00:45;;;;;;;5.20;1.40;;;23.10;49.00;;;;;;5124471;27;20035;-66
2022/05/26 12:03:26;;;;;;;5.00;1.25;;;22.90;49.30;;;;;;5124020;27;20011;-66
2022/05/26 12:06:04;;;;;;;4.70;1.13;;;23.00;49.40;;;;;;5126463;27;20469;-66
2022/05/26 12:08:52;;;;;;;4.53;1.27;;;23.10;49.60;;;;;;5125445;27;20175;-66
2022/05/26 12:11:22;;;;;;;6.07;1.20;;;23.10;49.10;;;;;;5126072;27;20435;-66
2022/05/26 12:14:02;;;;;;;5.35;1.42;;;23.10;49.30;;;;;;5124023;27;20022;-66
2022/05/26 12:16:29;;;;;;;3.55;1.15;;;23.20;49.10;;;;;;5121303;27;20092;-66
2022/05/26 12:19:04;;;;;;;6.85;1.55;;;23.00;49.40;;;;;;5116118;27;20110;-66
2022/05/26 12:21:30;;;;;;;5.10;1.40;;;23.00;49.30;;;;;;5123704;27;20035;-66
2022/05/26 12:24:19;;;;;;;3.47;1.08;;;22.90;49.40;;;;;;5121695;27;20416;-66
2022/05/26 12:26:54;;;;;;;6.88;1.52;;;22.90;49.40;;;;;;5122275;27;20058;-66
2022/05/26 12:29:47;;;;;;;5.75;1.50;;;22.80;49.00;;;;;;5112516;27;20024;-65
2022/05/26 12:32:24;;;;;;;4.72;1.30;;;22.60;49.30;;;;;;5061149;28;20478;-65
2022/05/26 12:35:12;;;;;;;6.28;1.70;;;22.70;49.80;;;;;;5050459;28;20029;-66
2022/05/26 12:37:52;;;;;;;5.30;1.48;;;22.70;49.40;;;;;;5042284;28;20095;-65
2022/05/26 12:40:58;;;;;;;5.93;1.23;;;22.80;49.00;;;;;;5047652;28;20033;-65
2022/05/26 12:43:45;;;;;;;4.05;1.30;;;22.70;48.70;;;;;;5034368;28;20103;-65
2022/05/26 12:46:58;;;;;;;2.88;1.00;;;22.60;48.90;;;;;;5036852;28;20163;-65
2022/05/26 12:49:52;;;;;;;3.72;1.35;;;22.50;49.20;;;;;;4994710;28;20112;-65
2022/05/26 12:52:37;;;;;;;7.55;1.33;;;22.50;49.50;;;;;;5012442;28;20045;-65
2022/05/26 12:55:20;;;;;;;5.38;1.60;;;22.60;49.60;;;;;;5014913;28;20495;-65
2022/05/26 12:58:02;;;;;;;6.50;1.63;;;22.70;49.40;;;;;;5010252;28;20133;-65
2022/05/26 13:00:37;;;;;;;6.35;1.67;;;22.70;49.40;;;;;;5022321;28;20025;-65
2022/05/26 13:03:22;;;;;;;5.22;1.30;;;22.70;49.10;;;;;;5016449;28;20480;-66
2022/05/26 13:05:53;;;;;;;5.47;1.30;;;22.50;49.10;;;;;;5014179;28;20100;-65
2022/05/26 13:08:20;;;;;;;;;;;22.50;49.40;;;;;;5017518;28;20057;-65
2022/05/26 13:10:51;;;;;;;5.03;1.55;;;22.40;49.60;;;;;;4994346;28;19921;-64
2022/05/26 13:13:24;;;;;;;6.00;1.65;;;22.40;49.80;;;;;;5014358;28;20125;-64
2022/05/26 13:15:50;;;;;;;7.00;1.63;;;22.40;49.80;;;;;;5019952;28;20125;-65
2022/05/26 13:18:19;;;;;;;6.50;1.70;;;22.40;49.70;;;;;;5012461;28;20115;-65
2022/05/26 13:20:44;;;;;;;4.60;1.52;;;22.40;49.90;;;;;;5019398;28;20030;-65
2022/05/26 13:23:10;;;;;;;5.80;1.33;;;22.50;50.10;;;;;;5034986;28;20040;-65
2022/05/26 13:25:35;;;;;;;8.63;2.00;;;22.50;50.10;;;;;;5058235;28;20098;-65
2022/05/26 13:28:08;;;;;;;4.93;1.52;;;22.50;49.90;;;;;;5052365;28;20036;-64
2022/05/26 13:33:54;;;;;;;7.90;2.17;;;22.40;50.30;;;;;;5055761;28;20045;-65
2022/05/26 13:36:44;;;;;;;7.85;2.15;;;22.40;50.60;;;;;;5053283;28;20041;-65
2022/05/26 13:39:13;;;;;;;8.32;2.92;;;22.40;50.80;;;;;;5051856;28;20037;-65
2022/05/26 13:41:44;;;;;;;7.50;2.40;;;22.30;50.80;;;;;;5051092;28;20036;-66
2022/05/26 13:44:15;;;;;;;9.18;2.60;;;22.20;51.10;;;;;;5043500;28;20103;-65
2022/05/26 13:46:46;;;;;;;7.43;2.55;;;22.20;51.30;;;;;;5042518;28;20442;-66
2022/05/26 13:49:31;;;;;;;10.75;2.95;;;22.20;51.50;;;;;;5042990;28;20095;-65
2022/05/26 13:52:17;;;;;;;9.57;2.95;;;22.20;51.60;;;;;;5044598;28;20055;-66